SCC544 KCAE-KSMS
Flight info
| Callsign | SCC544 |
|---|---|
| Flight time | N/A |
| Altitude | 3000 |
| Route | NOOKS PUUFF DDATA HAVPI FEDLU CIKVO |
| Aircraft | SF34/M-V/N |
Departure
| Time | N/A |
|---|---|
| Airport | Columbia Metropolitan Airport (KCAE) |
Arrival
| Time | 2026-04-14 20:53 |
|---|---|
| Airport | Sumter Airport (KSMS) |
| Time | Latitude | Longitude | Altitude | Speed | Heading |
|---|---|---|---|---|---|
| 2026-04-14 20:46 | 33.99601 | -80.19289 | 1990 ft | 207 kts | 47° |
| 2026-04-14 20:46 | 33.99640 | -80.19238 | 1985 ft | 208 kts | 47° |
| 2026-04-14 20:47 | 34.00329 | -80.18347 | 1985 ft | 207 kts | 47° |
| 2026-04-14 20:47 | 34.01322 | -80.17081 | 1982 ft | 209 kts | 46° |
| 2026-04-14 20:47 | 34.02332 | -80.15937 | 1972 ft | 184 kts | 28° |
| 2026-04-14 20:48 | 34.03596 | -80.15698 | 1986 ft | 191 kts | 347° |
| 2026-04-14 20:48 | 34.04723 | -80.16459 | 1988 ft | 186 kts | 315° |
| 2026-04-14 20:48 | 34.05653 | -80.17568 | 1988 ft | 187 kts | 311° |
| 2026-04-14 20:48 | 34.06534 | -80.18724 | 1979 ft | 186 kts | 299° |
| 2026-04-14 20:49 | 34.07050 | -80.20054 | 1979 ft | 162 kts | 283° |
| 2026-04-14 20:49 | 34.07181 | -80.21358 | 1973 ft | 153 kts | 271° |
| 2026-04-14 20:49 | 34.07262 | -80.22617 | 1983 ft | 150 kts | 272° |
| 2026-04-14 20:49 | 34.07101 | -80.23840 | 1978 ft | 150 kts | 252° |
| 2026-04-14 20:50 | 34.06814 | -80.25039 | 1981 ft | 148 kts | 251° |
| 2026-04-14 20:50 | 34.06544 | -80.26242 | 1986 ft | 150 kts | 252° |
| 2026-04-14 20:50 | 34.06239 | -80.27447 | 1851 ft | 144 kts | 250° |
| 2026-04-14 20:50 | 34.05844 | -80.28518 | 1802 ft | 143 kts | 240° |
| 2026-04-14 20:51 | 34.05332 | -80.29558 | 1614 ft | 146 kts | 233° |
| 2026-04-14 20:51 | 34.04680 | -80.30467 | 1464 ft | 141 kts | 223° |
| 2026-04-14 20:51 | 34.03969 | -80.31221 | 1332 ft | 133 kts | 221° |
| 2026-04-14 20:51 | 34.03316 | -80.31976 | 1089 ft | 128 kts | 223° |
| 2026-04-14 20:52 | 34.02684 | -80.32689 | 906 ft | 122 kts | 218° |
| 2026-04-14 20:52 | 34.02075 | -80.33335 | 916 ft | 117 kts | 223° |
| 2026-04-14 20:52 | 34.01495 | -80.33993 | 829 ft | 117 kts | 223° |
| 2026-04-14 20:52 | 34.00864 | -80.34669 | 421 ft | 125 kts | 223° |
| 2026-04-14 20:53 | 34.00227 | -80.35397 | 281 ft | 127 kts | 224° |
| 2026-04-14 20:53 | 33.99658 | -80.36063 | 192 ft | 100 kts | 221° |
| 2026-04-14 20:53 | 33.99444 | -80.36297 | 189 ft | 30 kts | 223° |
| 2026-04-14 20:53 | 33.99378 | -80.36369 | 190 ft | 5 kts | 219° |
| 2026-04-14 20:54 | 33.99330 | -80.36422 | 186 ft | 14 kts | 224° |
| 2026-04-14 20:54 | 33.99273 | -80.36491 | 188 ft | 8 kts | 223° |
| 2026-04-14 20:54 | 33.99238 | -80.36525 | 197 ft | 5 kts | 194° |
| 2026-04-14 20:54 | 33.99204 | -80.36514 | 186 ft | 8 kts | 144° |
| 2026-04-14 20:55 | 33.99181 | -80.36486 | 186 ft | 1 kts | 124° |
| 2026-04-14 20:55 | 33.99195 | -80.36420 | 186 ft | 17 kts | 70° |
| 2026-04-14 20:55 | 33.99218 | -80.36335 | 186 ft | 16 kts | 73° |
| 2026-04-14 20:55 | 33.99226 | -80.36240 | 185 ft | 0 kts | 93° |